Time;durP1;ratioP1;P1;durP2;ratioP2;P2;SDS_P1;SDS_P2;PMS_P1;PMS_P2;Temp;Humidity;BMP_temperature;BMP_pressure;BME280_temperature;BME280_humidity;BME280_pressure;Samples;Min_cycle;Max_cycle;Signal;HPM_P1;HPM_P2
2021/08/25 00:02:09;;;;;;;1.53;1.10;;;14.80;98.20;;;;;;5035716;28;20482;-77
2021/08/25 00:04:37;;;;;;;1.50;1.00;;;14.80;98.20;;;;;;5039188;28;20459;-77
2021/08/25 00:07:06;;;;;;;1.50;1.00;;;14.80;98.20;;;;;;5016483;28;20479;-77
2021/08/25 00:09:34;;;;;;;1.50;1.00;;;14.70;98.20;;;;;;5010762;28;20471;-77
2021/08/25 00:12:00;;;;;;;1.50;1.00;;;14.70;98.20;;;;;;5021507;28;20521;-77
2021/08/25 00:14:27;;;;;;;1.50;1.00;;;14.70;98.20;;;;;;5028858;28;20492;-76
2021/08/25 00:16:54;;;;;;;1.50;1.00;;;14.70;98.20;;;;;;5012102;28;20855;-75
2021/08/25 00:19:21;;;;;;;1.50;1.00;;;14.60;98.20;;;;;;5031492;28;20463;-75
2021/08/25 00:21:49;;;;;;;1.50;1.10;;;14.60;98.20;;;;;;5016797;28;20487;-76
2021/08/25 00:24:16;;;;;;;1.50;0.90;;;14.60;98.20;;;;;;5015883;28;20468;-76
2021/08/25 00:26:46;;;;;;;1.50;1.00;;;14.50;98.20;;;;;;5004543;28;20479;-76
2021/08/25 00:29:12;;;;;;;1.53;1.10;;;14.50;98.20;;;;;;5015413;28;20551;-76
2021/08/25 00:31:39;;;;;;;1.50;1.00;;;14.50;98.20;;;;;;5002948;28;20530;-77
2021/08/25 00:34:06;;;;;;;1.50;1.00;;;14.50;98.20;;;;;;5017379;28;20467;-77
2021/08/25 00:36:33;;;;;;;1.53;1.00;;;14.40;98.20;;;;;;5009483;28;20512;-77
2021/08/25 00:39:01;;;;;;;1.50;1.00;;;14.40;98.20;;;;;;5036555;28;20483;-75
2021/08/25 00:41:28;;;;;;;1.50;1.00;;;14.40;98.20;;;;;;5021390;28;20489;-76
2021/08/25 00:43:54;;;;;;;1.50;1.00;;;14.40;98.20;;;;;;5035954;28;20819;-76
2021/08/25 00:46:21;;;;;;;1.50;1.00;;;14.40;98.20;;;;;;5021919;28;20756;-76
2021/08/25 00:48:48;;;;;;;1.50;1.00;;;14.30;98.20;;;;;;5040668;28;20835;-76
2021/08/25 00:51:15;;;;;;;1.53;1.10;;;14.30;98.20;;;;;;5021924;28;20481;-76
2021/08/25 00:53:43;;;;;;;1.50;1.00;;;14.30;98.20;;;;;;5043554;28;20981;-77
2021/08/25 00:56:11;;;;;;;1.50;1.00;;;14.30;98.20;;;;;;5023490;28;20484;-76
2021/08/25 00:58:39;;;;;;;1.50;1.00;;;14.30;98.20;;;;;;5046116;28;20479;-75
2021/08/25 01:01:08;;;;;;;1.50;1.00;;;14.20;98.20;;;;;;5025484;28;21432;-76
2021/08/25 01:03:43;;;;;;;1.50;1.00;;;14.20;98.20;;;;;;5053465;28;20494;-76
2021/08/25 01:06:11;;;;;;;1.50;1.00;;;14.20;98.20;;;;;;5023286;28;20484;-76
2021/08/25 01:08:38;;;;;;;1.50;1.00;;;14.20;98.20;;;;;;5043241;28;21047;-76
2021/08/25 01:11:06;;;;;;;1.50;1.00;;;14.20;98.20;;;;;;5023927;28;20472;-77
2021/08/25 01:13:35;;;;;;;1.50;1.10;;;14.20;98.20;;;;;;5055659;28;20471;-76
2021/08/25 01:16:02;;;;;;;1.50;1.00;;;14.10;98.20;;;;;;5010343;28;20469;-75
2021/08/25 01:18:29;;;;;;;1.50;1.00;;;14.10;98.20;;;;;;5055957;28;20859;-77
2021/08/25 01:20:59;;;;;;;1.50;1.10;;;14.10;98.20;;;;;;5021591;28;20505;-76
2021/08/25 01:23:27;;;;;;;1.60;1.20;;;14.10;98.20;;;;;;5057031;28;20472;-76
2021/08/25 01:25:57;;;;;;;1.50;1.00;;;14.10;98.20;;;;;;5019995;28;20476;-76
2021/08/25 01:28:26;;;;;;;1.50;1.00;;;14.10;98.20;;;;;;5044918;28;20828;-77
2021/08/25 01:30:55;;;;;;;1.50;1.00;;;14.10;98.20;;;;;;5021841;28;20451;-76
2021/08/25 01:33:23;;;;;;;1.50;1.00;;;14.10;98.20;;;;;;5047712;28;20849;-76
2021/08/25 01:35:51;;;;;;;1.50;1.00;;;14.00;98.20;;;;;;5019096;28;20459;-76
2021/08/25 01:38:24;;;;;;;1.50;1.00;;;14.00;98.20;;;;;;5022085;28;20871;-76
2021/08/25 01:40:51;;;;;;;1.50;1.10;;;14.00;98.20;;;;;;5000905;28;20468;-76
2021/08/25 01:43:17;;;;;;;1.50;1.00;;;14.00;98.20;;;;;;5023498;28;20488;-77
2021/08/25 01:45:44;;;;;;;1.50;1.00;;;14.00;98.20;;;;;;5009385;28;20464;-76
2021/08/25 01:48:12;;;;;;;1.50;1.10;;;13.90;98.20;;;;;;5032793;28;20479;-76
2021/08/25 01:50:39;;;;;;;1.50;1.10;;;13.90;98.20;;;;;;5024802;28;20463;-75
2021/08/25 01:53:06;;;;;;;1.50;1.00;;;13.90;98.20;;;;;;5025478;28;20516;-76
2021/08/25 01:55:33;;;;;;;1.50;1.10;;;13.90;98.20;;;;;;5026317;28;20688;-76
2021/08/25 01:58:00;;;;;;;1.50;1.00;;;13.90;98.20;;;;;;5032531;28;20485;-76
2021/08/25 02:00:27;;;;;;;1.50;1.00;;;13.90;98.20;;;;;;5027896;28;20459;-75
2021/08/25 02:02:54;;;;;;;1.53;1.07;;;13.80;98.20;;;;;;5027717;28;20532;-76
2021/08/25 02:05:22;;;;;;;1.50;1.00;;;13.80;98.20;;;;;;5026561;28;20467;-76
2021/08/25 02:07:49;;;;;;;1.50;1.10;;;13.80;98.20;;;;;;5032972;28;20485;-75
2021/08/25 02:10:15;;;;;;;1.50;0.90;;;13.80;98.20;;;;;;5029033;28;20456;-76
2021/08/25 02:12:42;;;;;;;1.60;1.37;;;13.80;98.20;;;;;;5047633;28;20877;-75
2021/08/25 02:15:10;;;;;;;1.50;1.00;;;13.80;98.20;;;;;;5028487;28;20998;-76
2021/08/25 02:17:37;;;;;;;1.50;1.00;;;13.80;98.20;;;;;;5044521;28;20476;-76
2021/08/25 02:20:05;;;;;;;1.50;1.10;;;13.80;98.20;;;;;;5030726;28;20459;-76
2021/08/25 02:22:33;;;;;;;1.50;1.00;;;13.70;98.20;;;;;;5031452;28;20490;-76
2021/08/25 02:25:00;;;;;;;1.50;1.00;;;13.70;98.20;;;;;;5021008;28;20460;-76
2021/08/25 02:27:27;;;;;;;1.50;1.10;;;13.70;98.20;;;;;;5034893;28;20861;-76
2021/08/25 02:29:56;;;;;;;1.50;1.00;;;13.70;98.20;;;;;;5024370;28;20452;-75
2021/08/25 02:32:23;;;;;;;1.50;1.00;;;13.70;98.20;;;;;;5009223;28;20487;-75
2021/08/25 02:34:50;;;;;;;1.50;1.00;;;13.70;98.20;;;;;;5011656;28;20838;-76
2021/08/25 02:37:18;;;;;;;1.50;1.10;;;13.70;98.20;;;;;;5010038;28;20487;-77
2021/08/25 02:39:46;;;;;;;1.53;1.00;;;13.60;98.20;;;;;;5011845;28;20460;-78
2021/08/25 02:42:13;;;;;;;1.53;1.10;;;13.60;98.20;;;;;;5020944;28;20482;-75
2021/08/25 02:44:40;;;;;;;1.50;1.00;;;13.60;98.20;;;;;;5025217;28;20467;-76
2021/08/25 02:47:07;;;;;;;1.50;1.10;;;13.60;98.20;;;;;;5011899;28;20497;-75
2021/08/25 02:49:33;;;;;;;1.50;1.00;;;13.60;98.20;;;;;;5029055;28;21032;-75
2021/08/25 02:52:00;;;;;;;1.50;1.10;;;13.60;98.20;;;;;;5025669;28;20490;-76
2021/08/25 02:54:27;;;;;;;1.50;1.00;;;13.60;98.20;;;;;;5022270;28;20906;-76
2021/08/25 02:56:55;;;;;;;1.50;1.00;;;13.50;98.20;;;;;;5013887;28;20496;-75
2021/08/25 02:59:22;;;;;;;1.50;1.00;;;13.50;98.20;;;;;;5033480;28;20455;-75
2021/08/25 03:01:49;;;;;;;1.50;1.00;;;13.50;98.20;;;;;;5025702;28;20524;-76
2021/08/25 03:04:16;;;;;;;1.60;1.20;;;13.50;98.20;;;;;;5028845;28;20459;-76
2021/08/25 03:06:42;;;;;;;1.50;1.00;;;13.50;98.20;;;;;;5020491;28;20487;-76
2021/08/25 03:09:09;;;;;;;1.50;1.00;;;13.40;98.20;;;;;;5036169;28;20845;-75
2021/08/25 03:11:36;;;;;;;1.50;1.10;;;13.40;98.20;;;;;;5024861;28;20479;-75
2021/08/25 03:14:04;;;;;;;1.57;1.20;;;13.40;98.20;;;;;;5031962;28;20490;-77
2021/08/25 03:16:31;;;;;;;1.50;1.10;;;13.40;98.20;;;;;;5021907;28;20475;-77
2021/08/25 03:18:58;;;;;;;1.50;1.03;;;13.30;98.20;;;;;;5036647;28;20451;-76
2021/08/25 03:21:25;;;;;;;1.50;1.00;;;13.30;98.20;;;;;;5022454;28;21017;-77
2021/08/25 03:23:51;;;;;;;1.50;1.10;;;13.30;98.20;;;;;;5029474;28;20463;-77
2021/08/25 03:26:18;;;;;;;1.50;1.00;;;13.30;98.20;;;;;;5011837;28;20476;-77
2021/08/25 03:28:45;;;;;;;1.50;1.00;;;13.30;98.20;;;;;;5007559;28;20476;-76
2021/08/25 03:31:13;;;;;;;1.50;1.10;;;13.30;98.20;;;;;;5007926;28;20485;-76
2021/08/25 03:33:40;;;;;;;1.53;1.10;;;13.20;98.20;;;;;;5038488;28;20858;-76
2021/08/25 03:36:07;;;;;;;1.50;1.10;;;13.20;98.20;;;;;;5014581;28;20786;-76
2021/08/25 03:38:34;;;;;;;1.50;1.00;;;13.20;98.20;;;;;;5019744;28;20459;-75
2021/08/25 03:41:00;;;;;;;1.50;1.10;;;13.10;98.20;;;;;;4994045;28;20472;-75
2021/08/25 03:43:27;;;;;;;1.53;1.10;;;13.10;98.20;;;;;;5021036;28;20476;-75
2021/08/25 03:45:54;;;;;;;1.50;1.00;;;13.10;98.20;;;;;;4996936;28;20974;-75
2021/08/25 03:48:22;;;;;;;1.50;1.00;;;13.10;98.20;;;;;;5021681;28;20503;-77
2021/08/25 03:50:49;;;;;;;1.50;1.10;;;13.10;98.20;;;;;;4995503;28;20471;-75
2021/08/25 03:53:15;;;;;;;1.50;1.00;;;13.00;98.20;;;;;;5051603;28;20513;-75
2021/08/25 03:55:42;;;;;;;1.50;1.10;;;13.00;98.20;;;;;;5027235;28;20490;-75
2021/08/25 03:58:09;;;;;;;1.50;1.10;;;13.00;98.20;;;;;;5037569;28;20480;-75
2021/08/25 04:00:36;;;;;;;1.50;1.10;;;13.00;98.20;;;;;;5025633;28;20467;-77
2021/08/25 04:03:03;;;;;;;1.50;1.00;;;12.90;98.20;;;;;;5011068;28;20618;-75
2021/08/25 04:05:31;;;;;;;1.53;1.10;;;12.90;98.20;;;;;;5007491;28;20833;-75
2021/08/25 04:07:58;;;;;;;1.50;1.00;;;12.90;98.20;;;;;;5012025;28;20498;-77
2021/08/25 04:10:24;;;;;;;1.50;1.00;;;12.90;98.20;;;;;;5006051;28;20873;-75
2021/08/25 04:12:51;;;;;;;1.50;1.00;;;12.90;98.20;;;;;;5022402;28;20940;-76
2021/08/25 04:15:18;;;;;;;1.50;1.10;;;12.90;98.20;;;;;;5025213;28;20921;-76
2021/08/25 04:17:45;;;;;;;1.50;1.10;;;12.90;98.20;;;;;;5019745;28;20496;-75
2021/08/25 04:20:13;;;;;;;1.53;1.00;;;12.80;98.20;;;;;;5016634;28;20486;-76
2021/08/25 04:22:41;;;;;;;1.50;1.00;;;12.80;98.20;;;;;;5012092;28;20478;-77
2021/08/25 04:25:09;;;;;;;1.50;1.10;;;12.80;98.20;;;;;;5012984;28;20464;-76
2021/08/25 04:27:36;;;;;;;1.50;1.00;;;12.80;98.20;;;;;;5029125;28;21000;-76
2021/08/25 04:30:04;;;;;;;1.50;1.10;;;12.80;98.20;;;;;;5019421;28;20912;-77
2021/08/25 04:32:31;;;;;;;1.50;1.10;;;12.80;98.20;;;;;;5029189;28;20482;-76
2021/08/25 04:34:58;;;;;;;1.50;1.10;;;12.80;98.20;;;;;;5027300;28;20489;-77
2021/08/25 04:37:25;;;;;;;1.53;1.10;;;12.80;98.20;;;;;;5029009;28;20489;-76
2021/08/25 04:39:53;;;;;;;1.50;1.00;;;12.80;98.20;;;;;;5030728;28;20458;-77
2021/08/25 04:42:19;;;;;;;1.50;1.10;;;12.70;98.20;;;;;;5019257;28;20483;-76
2021/08/25 04:44:46;;;;;;;1.50;1.10;;;12.70;98.20;;;;;;5033250;28;20459;-76
2021/08/25 04:47:13;;;;;;;1.50;1.00;;;12.70;98.20;;;;;;5028901;28;20477;-77
2021/08/25 04:49:40;;;;;;;1.50;1.10;;;12.70;98.20;;;;;;5031565;28;20540;-76
2021/08/25 04:52:07;;;;;;;1.50;1.10;;;12.70;98.20;;;;;;5028583;28;20486;-77
2021/08/25 04:54:34;;;;;;;1.50;1.10;;;12.70;98.20;;;;;;5034472;28;21042;-77
2021/08/25 04:57:02;;;;;;;1.50;1.10;;;12.70;98.20;;;;;;5026766;28;20486;-77
2021/08/25 04:59:29;;;;;;;1.50;1.07;;;12.70;98.20;;;;;;5035538;28;20456;-77
2021/08/25 05:02:05;;;;;;;1.50;1.00;;;12.80;98.20;;;;;;5028483;28;20512;-83
2021/08/25 05:04:32;;;;;;;1.50;1.03;;;12.80;98.20;;;;;;5031863;28;20470;-77
2021/08/25 05:06:58;;;;;;;1.57;1.13;;;12.80;98.20;;;;;;5026340;28;20482;-76
2021/08/25 05:09:25;;;;;;;1.50;1.10;;;12.80;98.20;;;;;;5035620;28;20563;-76
2021/08/25 05:11:53;;;;;;;1.50;1.07;;;12.90;98.20;;;;;;5035871;28;20556;-77
2021/08/25 05:14:22;;;;;;;1.50;1.10;;;12.90;98.20;;;;;;5034831;28;20893;-78
2021/08/25 05:16:48;;;;;;;1.50;1.00;;;12.90;98.20;;;;;;5028833;28;20565;-76
2021/08/25 05:19:15;;;;;;;1.50;1.10;;;13.00;98.20;;;;;;5035832;28;20981;-77
2021/08/25 05:21:42;;;;;;;1.50;1.00;;;13.00;98.20;;;;;;5025279;28;20478;-77
2021/08/25 05:24:09;;;;;;;1.50;1.00;;;13.00;98.20;;;;;;5014586;28;20468;-76
2021/08/25 05:26:35;;;;;;;1.60;1.30;;;13.10;98.20;;;;;;5010128;28;20649;-77
2021/08/25 05:29:02;;;;;;;1.57;1.10;;;13.10;98.20;;;;;;5020307;28;20511;-77
2021/08/25 05:31:30;;;;;;;1.50;1.00;;;13.10;98.20;;;;;;5004137;28;20475;-77
2021/08/25 05:33:58;;;;;;;1.50;1.00;;;13.20;98.20;;;;;;5016109;28;20464;-77
2021/08/25 05:36:25;;;;;;;1.50;1.00;;;13.30;98.20;;;;;;5010541;28;20474;-78
2021/08/25 05:38:52;;;;;;;1.50;1.00;;;13.30;98.20;;;;;;5042320;28;20456;-78
2021/08/25 05:41:19;;;;;;;1.60;1.30;;;13.40;98.20;;;;;;5008145;28;20469;-78
2021/08/25 05:43:46;;;;;;;1.50;1.10;;;13.50;98.20;;;;;;5032706;28;20550;-77
2021/08/25 05:46:12;;;;;;;1.50;1.10;;;13.60;98.20;;;;;;5020625;28;20951;-78
2021/08/25 05:48:40;;;;;;;1.50;1.00;;;13.70;98.20;;;;;;5050720;28;20847;-77
2021/08/25 05:51:07;;;;;;;1.50;1.00;;;13.90;98.20;;;;;;5023804;28;20473;-77
2021/08/25 05:53:34;;;;;;;1.50;1.10;;;14.00;98.20;;;;;;5044537;28;21129;-78
2021/08/25 05:56:01;;;;;;;1.50;1.10;;;14.10;98.20;;;;;;5021141;28;20455;-76
2021/08/25 05:58:28;;;;;;;1.50;1.00;;;14.30;98.20;;;;;;5053264;28;20456;-77
2021/08/25 06:00:54;;;;;;;1.50;1.07;;;14.50;98.20;;;;;;5017822;28;20479;-77
2021/08/25 06:03:21;;;;;;;1.50;1.00;;;14.70;98.20;;;;;;5026559;28;20979;-77
2021/08/25 06:05:53;;;;;;;1.50;1.10;;;14.80;98.20;;;;;;4999905;28;20464;-76
2021/08/25 06:08:19;;;;;;;1.50;1.00;;;15.00;98.20;;;;;;5019408;28;20499;-76
2021/08/25 06:10:46;;;;;;;1.50;1.00;;;15.30;98.20;;;;;;5007752;28;20491;-77
2021/08/25 06:13:13;;;;;;;1.50;1.00;;;15.50;98.20;;;;;;5021400;28;20492;-76
2021/08/25 06:15:40;;;;;;;1.53;1.10;;;15.70;98.20;;;;;;5001287;28;20478;-76
2021/08/25 06:18:06;;;;;;;1.50;1.00;;;15.80;98.20;;;;;;5031083;28;20486;-76
2021/08/25 06:20:33;;;;;;;1.50;0.90;;;16.00;98.20;;;;;;5019331;28;20483;-76
2021/08/25 06:23:01;;;;;;;1.53;1.00;;;16.10;98.20;;;;;;5033265;28;20486;-76
2021/08/25 06:25:28;;;;;;;1.50;0.90;;;16.20;98.20;;;;;;5026795;28;20499;-76
2021/08/25 06:27:55;;;;;;;1.50;1.00;;;16.30;98.20;;;;;;5032406;28;20488;-75
2021/08/25 06:30:22;;;;;;;1.50;0.93;;;16.40;98.20;;;;;;5019839;28;20475;-76
2021/08/25 06:32:49;;;;;;;1.50;1.00;;;16.50;97.90;;;;;;5046868;28;20485;-76
2021/08/25 06:35:15;;;;;;;1.50;1.00;;;16.60;96.80;;;;;;5026286;28;20468;-76
2021/08/25 06:37:42;;;;;;;1.50;1.00;;;16.70;96.80;;;;;;5044450;28;20484;-75
2021/08/25 06:40:12;;;;;;;1.50;1.10;;;16.80;96.20;;;;;;5027511;28;20461;-76
2021/08/25 06:42:39;;;;;;;1.50;0.90;;;16.90;95.90;;;;;;5042769;28;20485;-77
2021/08/25 06:45:07;;;;;;;1.50;1.00;;;17.00;96.60;;;;;;5026980;28;20550;-76
2021/08/25 06:47:34;;;;;;;1.50;1.00;;;17.10;95.90;;;;;;5039896;28;20508;-76
2021/08/25 06:50:01;;;;;;;1.60;1.10;;;17.30;95.80;;;;;;5029811;28;20483;-76
2021/08/25 06:52:28;;;;;;;1.50;0.90;;;17.40;95.40;;;;;;5039890;28;20552;-77
2021/08/25 06:54:54;;;;;;;1.50;0.90;;;17.50;93.90;;;;;;5032977;28;20482;-76
2021/08/25 06:57:23;;;;;;;1.50;1.00;;;17.70;94.80;;;;;;5029622;28;20482;-76
2021/08/25 06:59:49;;;;;;;1.53;1.03;;;17.90;94.30;;;;;;5028116;28;20473;-76
2021/08/25 07:02:16;;;;;;;1.50;0.90;;;18.20;93.40;;;;;;5030879;28;20957;-76
2021/08/25 07:04:46;;;;;;;1.50;0.90;;;18.30;92.80;;;;;;5030314;28;20463;-75
2021/08/25 07:07:13;;;;;;;1.50;1.00;;;18.40;92.80;;;;;;5036503;28;20482;-76
2021/08/25 07:09:39;;;;;;;1.50;1.00;;;18.70;92.10;;;;;;5028545;28;20483;-75
2021/08/25 07:12:07;;;;;;;1.50;0.90;;;18.90;90.00;;;;;;5037774;28;20492;-75
2021/08/25 07:14:35;;;;;;;1.50;0.93;;;19.20;90.40;;;;;;5015534;28;20945;-75
2021/08/25 07:17:02;;;;;;;1.50;1.00;;;19.40;89.10;;;;;;5009561;28;21314;-75
2021/08/25 07:19:29;;;;;;;1.50;0.90;;;19.60;88.30;;;;;;5008278;28;20465;-76
2021/08/25 07:21:56;;;;;;;1.50;0.90;;;19.60;87.20;;;;;;5004275;28;20517;-75
2021/08/25 07:24:23;;;;;;;1.50;0.90;;;19.60;89.00;;;;;;5008233;28;20892;-75
2021/08/25 07:26:50;;;;;;;1.50;0.90;;;19.70;88.80;;;;;;5000005;28;20483;-75
2021/08/25 07:29:16;;;;;;;1.50;0.90;;;19.80;88.70;;;;;;5010607;28;20999;-75
2021/08/25 07:31:45;;;;;;;1.50;1.00;;;20.00;88.50;;;;;;5014011;28;20486;-76
2021/08/25 07:34:12;;;;;;;1.50;0.90;;;20.10;87.40;;;;;;5034240;28;21096;-75
2021/08/25 07:36:39;;;;;;;1.50;0.90;;;20.10;87.30;;;;;;5026544;28;20487;-74
2021/08/25 07:39:06;;;;;;;1.50;0.90;;;20.20;87.90;;;;;;5040061;28;20467;-75
2021/08/25 07:41:33;;;;;;;1.50;0.90;;;20.50;85.80;;;;;;5012666;28;20491;-75
2021/08/25 07:44:00;;;;;;;1.50;0.93;;;20.70;85.30;;;;;;5010629;28;20464;-75
2021/08/25 07:46:32;;;;;;;1.70;1.10;;;20.80;84.60;;;;;;4997853;28;20485;-76
2021/08/25 07:49:01;;;;;;;1.50;0.90;;;20.90;84.50;;;;;;5015370;28;20464;-76
2021/08/25 07:51:28;;;;;;;1.50;0.90;;;21.00;83.30;;;;;;4998500;28;20552;-76
2021/08/25 07:53:55;;;;;;;1.53;0.90;;;21.10;83.70;;;;;;5012130;28;20838;-76
2021/08/25 07:56:22;;;;;;;1.50;0.90;;;21.10;84.40;;;;;;5001384;28;20950;-76
2021/08/25 07:58:49;;;;;;;1.50;1.00;;;21.30;83.10;;;;;;5035913;28;20479;-77
2021/08/25 08:01:16;;;;;;;1.50;0.90;;;21.40;82.30;;;;;;5012618;28;20584;-77
2021/08/25 08:03:42;;;;;;;1.53;0.90;;;21.60;81.60;;;;;;5042971;28;20467;-77
2021/08/25 08:06:11;;;;;;;1.50;0.90;;;21.80;81.40;;;;;;5010645;28;20486;-76
2021/08/25 08:08:37;;;;;;;1.50;0.90;;;21.90;83.70;;;;;;5013725;28;20468;-77
2021/08/25 08:11:04;;;;;;;1.50;0.90;;;22.00;83.80;;;;;;4996985;28;20494;-77
2021/08/25 08:13:31;;;;;;;1.50;0.90;;;22.10;84.30;;;;;;5015925;28;20528;-77
2021/08/25 08:15:58;;;;;;;1.50;0.90;;;22.20;84.00;;;;;;4988056;28;20464;-77
2021/08/25 08:18:31;;;;;;;1.87;1.33;;;22.30;82.90;;;;;;5039005;28;20451;-77
2021/08/25 08:20:58;;;;;;;1.50;0.90;;;22.40;83.10;;;;;;5015842;28;20459;-77
2021/08/25 08:23:26;;;;;;;1.50;0.90;;;22.50;82.80;;;;;;5040875;28;20986;-78
2021/08/25 08:25:54;;;;;;;1.50;0.90;;;22.50;81.80;;;;;;5015975;28;20529;-77
2021/08/25 08:28:21;;;;;;;1.50;0.90;;;22.60;82.00;;;;;;5036153;28;20467;-77
2021/08/25 08:30:48;;;;;;;1.50;0.90;;;22.70;81.40;;;;;;4995207;28;20483;-77
2021/08/25 08:33:15;;;;;;;1.50;1.00;;;22.80;81.40;;;;;;5022123;28;20520;-78
2021/08/25 08:35:42;;;;;;;1.50;0.90;;;22.90;80.90;;;;;;5008405;28;20472;-77
2021/08/25 08:38:09;;;;;;;1.50;0.90;;;23.10;80.50;;;;;;5012114;28;20491;-78
2021/08/25 08:40:37;;;;;;;1.50;0.90;;;23.30;80.00;;;;;;5003060;28;20457;-78
2021/08/25 08:43:05;;;;;;;1.50;0.90;;;23.50;79.00;;;;;;5006307;28;21009;-78
2021/08/25 08:45:37;;;;;;;1.50;0.90;;;23.40;77.90;;;;;;5009601;28;20577;-77
2021/08/25 08:48:07;;;;;;;1.70;1.27;;;23.30;78.60;;;;;;5011163;28;20519;-77
2021/08/25 08:50:35;;;;;;;1.50;0.90;;;23.40;78.40;;;;;;5004327;28;20492;-78
2021/08/25 08:53:02;;;;;;;1.50;0.90;;;23.40;77.80;;;;;;5011977;28;20491;-78
2021/08/25 08:55:29;;;;;;;1.50;0.90;;;23.60;78.10;;;;;;5000713;28;20464;-78
2021/08/25 08:57:57;;;;;;;1.50;0.90;;;23.80;77.60;;;;;;5035548;28;20811;-77
2021/08/25 09:00:23;;;;;;;1.50;0.90;;;24.00;77.30;;;;;;5025303;28;20463;-78
2021/08/25 09:02:50;;;;;;;1.50;0.90;;;24.20;76.00;;;;;;5018731;28;20498;-80
2021/08/25 09:05:22;;;;;;;1.50;0.90;;;24.20;75.30;;;;;;5004098;28;20483;-79
2021/08/25 09:07:54;;;;;;;1.50;0.90;;;24.20;75.40;;;;;;5023566;28;20628;-78
2021/08/25 09:10:24;;;;;;;1.50;0.90;;;24.20;73.30;;;;;;5021632;28;20788;-78
2021/08/25 09:12:52;;;;;;;1.50;0.90;;;24.20;73.70;;;;;;5027151;28;20932;-78
2021/08/25 09:15:22;;;;;;;1.50;0.90;;;24.20;74.40;;;;;;5023704;28;21067;-78
2021/08/25 09:17:55;;;;;;;1.50;0.87;;;24.30;71.90;;;;;;5031561;28;20473;-77
2021/08/25 09:20:22;;;;;;;1.50;0.80;;;24.50;73.30;;;;;;5021887;28;20841;-76
2021/08/25 09:23:07;;;;;;;1.50;0.90;;;24.50;72.80;;;;;;5036311;28;20523;-76
2021/08/25 09:25:35;;;;;;;1.50;0.90;;;24.50;73.00;;;;;;5026703;28;20459;-78
2021/08/25 09:28:02;;;;;;;1.50;0.90;;;24.60;71.20;;;;;;5031585;28;20849;-77
2021/08/25 09:33:25;;;;;;;1.50;0.90;;;24.70;71.50;;;;;;5140452;27;20953;-78
2021/08/25 09:35:55;;;;;;;1.50;1.00;;;24.60;72.90;;;;;;5096646;22;20507;-77
2021/08/25 09:38:24;;;;;;;1.50;0.90;;;24.80;72.50;;;;;;5055911;28;20474;-77
2021/08/25 09:40:54;;;;;;;1.50;0.80;;;25.00;71.40;;;;;;5018416;28;20829;-77
2021/08/25 09:43:38;;;;;;;1.43;0.90;;;25.00;71.40;;;;;;5023021;28;20534;-78
2021/08/25 09:46:11;;;;;;;1.50;0.90;;;25.00;71.20;;;;;;5019674;28;20471;-78
2021/08/25 09:48:41;;;;;;;1.50;0.90;;;25.00;70.90;;;;;;5022246;28;21191;-77
2021/08/25 09:51:08;;;;;;;1.50;0.80;;;25.10;72.10;;;;;;5023551;28;20471;-78
2021/08/25 09:53:36;;;;;;;1.47;0.90;;;25.20;72.30;;;;;;5022996;28;20494;-78
2021/08/25 09:56:25;;;;;;;1.47;0.87;;;25.30;70.70;;;;;;5025098;28;20529;-78
2021/08/25 09:58:53;;;;;;;1.50;0.90;;;25.40;70.60;;;;;;5031728;28;20464;-78
2021/08/25 10:01:20;;;;;;;1.50;0.80;;;25.50;71.10;;;;;;5018080;28;20483;-78
2021/08/25 10:03:50;;;;;;;1.50;0.80;;;25.50;70.80;;;;;;5037947;28;20466;-77
2021/08/25 10:06:18;;;;;;;1.47;0.80;;;25.60;70.20;;;;;;5022997;28;20485;-78
2021/08/25 10:08:46;;;;;;;1.50;0.80;;;25.70;69.50;;;;;;5044104;28;20463;-78
2021/08/25 10:11:14;;;;;;;1.50;0.90;;;25.90;68.90;;;;;;5033986;28;20490;-78
2021/08/25 10:13:41;;;;;;;1.50;0.90;;;25.90;67.30;;;;;;5038452;28;20466;-78
2021/08/25 10:16:12;;;;;;;1.50;0.90;;;25.80;67.50;;;;;;5017070;28;20482;-78
2021/08/25 10:18:41;;;;;;;1.50;0.80;;;25.60;68.80;;;;;;5035048;28;20459;-79
2021/08/25 10:21:43;;;;;;;1.50;0.80;;;25.60;68.10;;;;;;5008145;28;20525;-78
2021/08/25 10:24:11;;;;;;;1.47;0.80;;;25.60;68.70;;;;;;5010883;28;20463;-80
2021/08/25 10:27:07;;;;;;;1.50;0.90;;;25.70;68.30;;;;;;5008728;28;20561;-79
2021/08/25 10:29:55;;;;;;;1.50;0.80;;;25.80;68.90;;;;;;5005748;28;20464;-79
2021/08/25 10:32:22;;;;;;;1.50;0.90;;;25.90;67.30;;;;;;5009874;28;20490;-78
2021/08/25 10:35:17;;;;;;;1.50;0.80;;;26.00;66.50;;;;;;5013784;28;20474;-77
2021/08/25 10:37:46;;;;;;;1.50;0.80;;;25.90;66.30;;;;;;5009679;28;20553;-81
2021/08/25 10:40:15;;;;;;;1.50;0.90;;;25.80;67.10;;;;;;5005105;28;20904;-80
2021/08/25 10:42:51;;;;;;;1.90;1.20;;;25.90;67.10;;;;;;5013567;28;20494;-80
2021/08/25 10:45:38;;;;;;;1.47;0.80;;;25.90;67.80;;;;;;4984342;28;20460;-78
2021/08/25 10:48:08;;;;;;;1.43;0.80;;;26.00;67.80;;;;;;4998393;28;20640;-80
2021/08/25 10:50:49;;;;;;;1.47;0.80;;;26.10;66.70;;;;;;5010959;28;20459;-79
2021/08/25 10:53:39;;;;;;;1.50;0.90;;;26.20;66.20;;;;;;4983232;28;20519;-79
2021/08/25 10:56:11;;;;;;;1.50;0.80;;;26.30;67.30;;;;;;4981244;28;20475;-78
2021/08/25 10:58:43;;;;;;;1.50;0.90;;;26.50;65.40;;;;;;4986444;28;20469;-78
2021/08/25 11:01:25;;;;;;;1.50;0.90;;;26.50;66.80;;;;;;4975115;28;20481;-78
2021/08/25 11:03:52;;;;;;;1.50;0.90;;;26.60;65.60;;;;;;4994177;28;21113;-78
2021/08/25 11:06:37;;;;;;;1.50;0.87;;;26.80;66.80;;;;;;4987838;28;21388;-77
2021/08/25 11:09:30;;;;;;;1.43;0.80;;;26.90;66.10;;;;;;5000032;28;20551;-80
2021/08/25 11:12:06;;;;;;;1.47;0.80;;;26.90;65.30;;;;;;4991293;28;20487;-78
2021/08/25 11:14:36;;;;;;;1.50;0.90;;;26.90;65.30;;;;;;4997203;28;20514;-79
2021/08/25 11:17:12;;;;;;;1.50;0.90;;;27.00;64.10;;;;;;4987322;28;20487;-79
2021/08/25 11:19:41;;;;;;;1.43;0.90;;;27.00;65.80;;;;;;4988457;28;20474;-78
2021/08/25 11:22:14;;;;;;;1.47;0.80;;;27.00;64.70;;;;;;4998709;28;20488;-81
2021/08/25 11:24:43;;;;;;;1.50;0.80;;;26.90;64.40;;;;;;4988925;28;20475;-79
2021/08/25 11:27:29;;;;;;;1.50;0.80;;;26.90;66.00;;;;;;4991805;28;20499;-79
2021/08/25 11:30:09;;;;;;;1.50;1.00;;;26.80;65.30;;;;;;4994358;28;20515;-78
2021/08/25 11:32:37;;;;;;;1.50;1.10;;;26.60;62.60;;;;;;4990873;28;20503;-78
2021/08/25 11:35:06;;;;;;;1.50;0.90;;;26.40;65.00;;;;;;5001559;28;20842;-79
2021/08/25 11:37:33;;;;;;;1.43;0.80;;;26.40;66.10;;;;;;5006725;28;20511;-78
2021/08/25 11:40:03;;;;;;;1.50;0.90;;;26.30;64.90;;;;;;5009196;28;20490;-77
2021/08/25 11:42:33;;;;;;;1.50;0.90;;;26.40;65.50;;;;;;4959164;28;21123;-76
2021/08/25 11:45:00;;;;;;;1.47;0.80;;;26.60;64.50;;;;;;4965464;28;20481;-76
2021/08/25 11:47:28;;;;;;;1.50;0.90;;;26.70;64.50;;;;;;4870568;29;20498;-78
2021/08/25 11:49:57;;;;;;;1.47;0.80;;;26.70;66.30;;;;;;4783513;29;20478;-78
2021/08/25 11:52:33;;;;;;;1.50;0.80;;;26.90;66.00;;;;;;4621526;29;21238;-78
2021/08/25 11:55:01;;;;;;;1.47;0.90;;;27.00;64.10;;;;;;4573479;31;20573;-76
2021/08/25 11:57:44;;;;;;;1.47;0.83;;;27.10;63.50;;;;;;4584083;31;20759;-79
2021/08/25 12:00:13;;;;;;;1.47;0.90;;;27.10;63.40;;;;;;4576525;31;20500;-78
2021/08/25 12:02:57;;;;;;;1.47;0.80;;;27.10;64.90;;;;;;4589925;31;21278;-79
2021/08/25 12:05:26;;;;;;;1.47;0.80;;;27.30;65.30;;;;;;4573007;31;20579;-79
2021/08/25 12:08:07;;;;;;;1.50;1.00;;;27.50;63.80;;;;;;4592304;31;20515;-77
2021/08/25 12:10:36;;;;;;;1.50;0.80;;;27.70;63.60;;;;;;4575167;31;20481;-78
2021/08/25 12:13:04;;;;;;;1.43;0.80;;;27.80;64.10;;;;;;4599313;30;20510;-76
2021/08/25 12:15:47;;;;;;;1.50;0.90;;;27.80;63.90;;;;;;4585362;31;20495;-78
2021/08/25 12:18:14;;;;;;;1.47;0.90;;;27.70;63.60;;;;;;4560476;31;20616;-78
2021/08/25 12:20:42;;;;;;;1.50;0.90;;;27.60;63.40;;;;;;4573673;31;20481;-77
2021/08/25 12:23:12;;;;;;;1.40;0.80;;;27.40;63.60;;;;;;4590537;31;20525;-79
2021/08/25 12:25:41;;;;;;;1.50;0.80;;;27.30;64.00;;;;;;4583096;31;20500;-77
2021/08/25 12:28:11;;;;;;;1.47;0.90;;;27.40;64.20;;;;;;4592000;31;20509;-78
2021/08/25 12:30:39;;;;;;;1.47;0.90;;;27.30;63.10;;;;;;4575784;31;20493;-79
2021/08/25 12:33:07;;;;;;;1.43;0.80;;;27.30;63.50;;;;;;4589180;31;20491;-79
2021/08/25 12:35:34;;;;;;;1.50;0.80;;;27.30;63.70;;;;;;4573810;31;20575;-78
2021/08/25 12:38:01;;;;;;;1.60;1.10;;;27.40;64.80;;;;;;4591110;31;20507;-78
2021/08/25 12:40:29;;;;;;;1.43;0.90;;;27.50;63.00;;;;;;4577777;31;21173;-78
2021/08/25 12:42:57;;;;;;;1.47;0.80;;;27.70;64.10;;;;;;4597539;30;20522;-78
2021/08/25 12:45:27;;;;;;;1.50;0.90;;;27.70;62.90;;;;;;4574098;31;20492;-78
2021/08/25 12:47:55;;;;;;;1.47;0.80;;;27.70;63.80;;;;;;4591144;31;20507;-78
2021/08/25 12:50:24;;;;;;;1.50;0.90;;;27.90;63.00;;;;;;4621171;30;20492;-81
2021/08/25 12:52:52;;;;;;;1.47;0.90;;;27.90;62.90;;;;;;4724843;30;20508;-79
2021/08/25 12:55:19;;;;;;;1.63;1.30;;;27.80;63.90;;;;;;4710211;30;20569;-79
2021/08/25 12:57:46;;;;;;;1.47;0.80;;;27.80;63.10;;;;;;4712606;30;20586;-78
2021/08/25 13:00:14;;;;;;;1.47;0.80;;;28.00;63.00;;;;;;4709493;30;20473;-79